Time;durP1;ratioP1;P1;durP2;ratioP2;P2;SDS_P1;SDS_P2;PMS_P1;PMS_P2;Temp;Humidity;BMP_temperature;BMP_pressure;BME280_temperature;BME280_humidity;BME280_pressure;Samples;Min_cycle;Max_cycle;Signal;HPM_P1;HPM_P2
2022/01/23 00:00:44;;;;;;;4.15;1.95;;;;;;;;;;6215060;28;20069;-79
2022/01/23 00:03:49;;;;;;;6.25;2.00;;;;;;;;;;6216607;28;20554;-78
2022/01/23 00:06:52;;;;;;;5.10;1.92;;;;;;;;;;6215351;28;20049;-79
2022/01/23 00:09:56;;;;;;;3.72;1.70;;;;;;;;;;6216078;28;20041;-78
2022/01/23 00:13:08;;;;;;;5.05;1.90;;;;;;;;;;6214639;28;20076;-77
2022/01/23 00:19:34;;;;;;;4.07;2.10;;;;;;;;;;6214848;28;20058;-77
2022/01/23 00:22:41;;;;;;;5.78;2.33;;;;;;;;;;6215562;28;20439;-77
2022/01/23 00:32:27;;;;;;;5.70;2.08;;;;;;;;;;6214234;28;20479;-76
2022/01/23 00:35:32;;;;;;;9.45;2.35;;;;;;;;;;6212868;28;20501;-76
2022/01/23 00:38:35;;;;;;;3.90;1.98;;;;;;;;;;6213721;28;20077;-76
2022/01/23 00:41:41;;;;;;;3.85;2.08;;;;;;;;;;6214146;28;20048;-75
2022/01/23 00:44:53;;;;;;;4.45;1.83;;;;;;;;;;6213701;28;20062;-77
2022/01/23 00:48:02;;;;;;;7.03;2.13;;;;;;;;;;6213331;28;20041;-79
2022/01/23 00:51:05;;;;;;;4.50;1.98;;;;;;;;;;6213658;28;20050;-78
2022/01/23 00:54:09;;;;;;;4.80;1.60;;;;;;;;;;6213954;28;20049;-76
2022/01/23 00:57:12;;;;;;;5.28;1.80;;;;;;;;;;6213497;28;20061;-76
2022/01/23 01:00:16;;;;;;;3.58;2.00;;;;;;;;;;6213610;28;20053;-76
2022/01/23 01:03:21;;;;;;;2.35;1.60;;;;;;;;;;6214866;28;20081;-77
2022/01/23 01:06:24;;;;;;;4.75;2.00;;;;;;;;;;6213643;28;20046;-76
2022/01/23 01:09:29;;;;;;;4.65;2.35;;;;;;;;;;6213284;28;20074;-77
2022/01/23 01:12:38;;;;;;;3.40;1.98;;;;;;;;;;6213717;28;20570;-78
2022/01/23 01:15:59;;;;;;;6.10;2.13;;;;;;;;;;6213594;28;20103;-78
2022/01/23 01:32:56;;;;;;;7.03;2.28;;;;;;;;;;6211440;28;20122;-77
2022/01/23 01:36:14;;;;;;;6.25;2.20;;;;;;;;;;6213375;28;20095;-77
2022/01/23 01:39:19;;;;;;;6.05;2.50;;;;;;;;;;6212795;28;20050;-78
2022/01/23 01:42:23;;;;;;;5.27;2.30;;;;;;;;;;6212789;28;20077;-78
2022/01/23 01:45:27;;;;;;;4.80;2.28;;;;;;;;;;6214046;28;20563;-78
2022/01/23 01:48:33;;;;;;;5.55;2.72;;;;;;;;;;6217027;28;20076;-78
2022/01/23 01:51:44;;;;;;;8.13;3.88;;;;;;;;;;6217177;28;20083;-79
2022/01/23 01:54:59;;;;;;;5.40;2.25;;;;;;;;;;6217064;28;20080;-78
2022/01/23 01:58:04;;;;;;;9.27;2.78;;;;;;;;;;6216800;28;20050;-78
2022/01/23 02:08:32;;;;;;;5.15;2.40;;;;;;;;;;6216769;28;20476;-79
2022/01/23 02:11:57;;;;;;;4.35;2.22;;;;;;;;;;6216729;28;20054;-78
2022/01/23 02:15:28;;;;;;;4.50;1.88;;;;;;;;;;6216395;28;20100;-79
2022/01/23 02:22:29;;;;;;;3.67;2.10;;;;;;;;;;6215433;28;20042;-77
2022/01/23 02:22:40;;;;;;;5.75;2.60;;;;;;;;;;6216593;28;20072;-78
2022/01/23 02:53:34;;;;;;;5.45;2.30;;;;;;;;;;6215416;28;20061;-79
2022/01/23 02:56:45;;;;;;;4.93;2.08;;;;;;;;;;6215408;28;20062;-80
2022/01/23 02:59:49;;;;;;;5.53;2.13;;;;;;;;;;6213773;28;21024;-79
2022/01/23 03:03:25;;;;;;;6.10;2.20;;;;;;;;;;6236267;28;20142;-79
2022/01/23 03:07:08;;;;;;;5.38;2.47;;;;;;;;;;6213501;28;20540;-78
2022/01/23 03:10:18;;;;;;;7.10;2.50;;;;;;;;;;6213007;28;20050;-77
2022/01/23 03:30:22;;;;;;;7.20;2.47;;;;;;;;;;6229516;28;20112;-78
2022/01/23 03:33:25;;;;;;;4.35;2.00;;;;;;;;;;6215154;28;20407;-78
2022/01/23 03:36:28;;;;;;;5.57;2.13;;;;;;;;;;6214990;28;20057;-79
2022/01/23 03:39:31;;;;;;;4.45;2.17;;;;;;;;;;6214944;28;20117;-77
2022/01/23 03:42:37;;;;;;;4.22;2.22;;;;;;;;;;6215422;28;20050;-78
2022/01/23 03:45:58;;;;;;;7.35;2.72;;;;;;;;;;6214996;28;20042;-78
2022/01/23 03:52:27;;;;;;;7.22;2.42;;;;;;;;;;6214695;28;20484;-77
2022/01/23 03:55:31;;;;;;;5.03;2.30;;;;;;;;;;6215542;28;20074;-76
2022/01/23 03:58:35;;;;;;;8.82;2.80;;;;;;;;;;6214579;28;20056;-77
2022/01/23 04:01:43;;;;;;;5.22;2.45;;;;;;;;;;6214718;28;20061;-77
2022/01/23 04:04:47;;;;;;;8.95;2.70;;;;;;;;;;6214596;28;20053;-77
2022/01/23 04:07:54;;;;;;;6.85;2.15;;;;;;;;;;6214172;28;20077;-78
2022/01/23 04:11:03;;;;;;;5.97;2.42;;;;;;;;;;6214238;28;20150;-78
2022/01/23 04:14:09;;;;;;;6.80;2.33;;;;;;;;;;6214402;28;20554;-77
2022/01/23 04:20:47;;;;;;;4.70;2.28;;;;;;;;;;6253503;28;20503;-77
2022/01/23 04:34:00;;;;;;;3.60;1.83;;;;;;;;;;6212424;28;20077;-78
2022/01/23 05:00:52;;;;;;;5.18;2.03;;;;;;;;;;6211804;28;20053;-76
2022/01/23 05:04:12;;;;;;;6.38;2.20;;;;;;;;;;6212965;28;20038;-76
2022/01/23 05:07:56;;;;;;;4.78;1.95;;;;;;;;;;6264290;28;20087;-76
2022/01/23 05:11:26;;;;;;;5.53;2.40;;;;;;;;;;6255055;28;20503;-78
2022/01/23 05:14:46;;;;;;;3.33;1.92;;;;;;;;;;6214558;28;20408;-77
2022/01/23 05:17:49;;;;;;;4.72;2.03;;;;;;;;;;6213862;28;20421;-77
2022/01/23 05:21:01;;;;;;;6.47;2.00;;;;;;;;;;6212993;28;20050;-77
2022/01/23 05:24:09;;;;;;;6.18;1.83;;;;;;;;;;6214177;28;20042;-77
2022/01/23 05:27:12;;;;;;;5.97;2.00;;;;;;;;;;6212890;28;20050;-77
2022/01/23 05:30:15;;;;;;;5.63;2.30;;;;;;;;;;6214304;28;20057;-77
2022/01/23 05:33:20;;;;;;;5.97;2.10;;;;;;;;;;6213373;28;20453;-76
2022/01/23 05:36:23;;;;;;;6.50;2.20;;;;;;;;;;6212871;28;20061;-77
2022/01/23 05:39:32;;;;;;;7.18;2.22;;;;;;;;;;6212758;28;20077;-76
2022/01/23 05:42:37;;;;;;;5.28;2.22;;;;;;;;;;6213049;28;20046;-76
2022/01/23 05:45:42;;;;;;;4.40;2.10;;;;;;;;;;6212540;28;20125;-76
2022/01/23 05:48:44;;;;;;;5.60;2.00;;;;;;;;;;6214287;28;20377;-76
2022/01/23 05:52:06;;;;;;;8.60;2.22;;;;;;;;;;6212833;28;20549;-76
2022/01/23 05:55:40;;;;;;;4.07;2.10;;;;;;;;;;6222179;28;20195;-76
2022/01/23 05:58:58;;;;;;;4.18;1.73;;;;;;;;;;6212511;28;20069;-76
2022/01/23 06:02:09;;;;;;;7.03;2.00;;;;;;;;;;6212362;28;20495;-76
2022/01/23 06:05:14;;;;;;;3.63;2.00;;;;;;;;;;6212596;28;20091;-77
2022/01/23 06:08:32;;;;;;;4.65;1.95;;;;;;;;;;6214058;28;20050;-76
2022/01/23 06:11:37;;;;;;;6.07;2.42;;;;;;;;;;6212289;28;20464;-76
2022/01/23 06:14:40;;;;;;;14.65;2.28;;;;;;;;;;6212934;28;20042;-76
2022/01/23 06:17:44;;;;;;;6.95;2.22;;;;;;;;;;6212534;28;20074;-76
2022/01/23 06:21:06;;;;;;;4.72;1.73;;;;;;;;;;6213590;28;20065;-76
2022/01/23 06:24:33;;;;;;;5.32;2.30;;;;;;;;;;6220495;28;20113;-77
2022/01/23 06:28:02;;;;;;;7.13;2.40;;;;;;;;;;6227851;28;20062;-76
2022/01/23 06:31:05;;;;;;;8.30;2.47;;;;;;;;;;6211919;28;20065;-77
2022/01/23 06:34:08;;;;;;;5.65;2.25;;;;;;;;;;6215748;28;20124;-78
2022/01/23 06:37:14;;;;;;;7.43;2.55;;;;;;;;;;6216010;28;20092;-76
2022/01/23 06:40:17;;;;;;;5.00;2.38;;;;;;;;;;6216270;28;20049;-77
2022/01/23 06:43:41;;;;;;;7.35;2.40;;;;;;;;;;6217581;28;20074;-77
2022/01/23 06:46:51;;;;;;;5.07;1.83;;;;;;;;;;6215981;28;20690;-77
2022/01/23 06:49:57;;;;;;;;;;;;;;;;;;6216346;28;20530;-77
2022/01/23 06:53:01;;;;;;;6.65;2.72;;;;;;;;;;6215889;28;19928;-78
2022/01/23 06:56:04;;;;;;;4.30;2.03;;;;;;;;;;6215949;28;20069;-77
2022/01/23 06:59:09;;;;;;;5.43;1.85;;;;;;;;;;6215261;28;20487;-75
2022/01/23 07:02:16;;;;;;;6.70;2.20;;;;;;;;;;6216041;28;20343;-74
2022/01/23 07:05:39;;;;;;;5.60;2.30;;;;;;;;;;6237572;28;20064;-78
2022/01/23 07:08:54;;;;;;;8.20;2.70;;;;;;;;;;6215767;28;20061;-78
2022/01/23 07:12:15;;;;;;;4.43;2.25;;;;;;;;;;6215208;28;20077;-76
2022/01/23 07:15:53;;;;;;;5.63;2.40;;;;;;;;;;6238834;28;20062;-77
2022/01/23 07:19:28;;;;;;;;;;;;;;;;;;6216006;28;20053;-77
2022/01/23 07:22:36;;;;;;;5.90;2.35;;;;;;;;;;6215547;28;19979;-77
2022/01/23 07:25:41;;;;;;;7.43;2.83;;;;;;;;;;6215016;28;20143;-77
2022/01/23 07:28:45;;;;;;;6.53;2.17;;;;;;;;;;6215121;28;20474;-77
2022/01/23 07:31:59;;;;;;;4.82;2.00;;;;;;;;;;6215060;28;20556;-77
2022/01/23 07:35:04;;;;;;;8.13;2.67;;;;;;;;;;6215462;28;20058;-76
2022/01/23 07:38:09;;;;;;;7.70;2.50;;;;;;;;;;6215023;28;20053;-78
2022/01/23 07:41:20;;;;;;;5.80;2.90;;;;;;;;;;6214916;28;20119;-78
2022/01/23 07:44:31;;;;;;;5.95;2.42;;;;;;;;;;6215109;28;20046;-77
2022/01/23 07:48:06;;;;;;;8.23;2.72;;;;;;;;;;6223893;28;20315;-78
2022/01/23 07:51:36;;;;;;;7.10;3.08;;;;;;;;;;6238807;28;20062;-78
2022/01/23 07:54:58;;;;;;;6.43;2.53;;;;;;;;;;6201463;28;20053;-78
2022/01/23 07:58:13;;;;;;;4.90;2.25;;;;;;;;;;6214728;28;20054;-78
2022/01/23 08:01:41;;;;;;;5.80;2.40;;;;;;;;;;6215918;28;20502;-78
2022/01/23 08:05:14;;;;;;;6.55;2.33;;;;;;;;;;6251442;28;20254;-77
2022/01/23 08:08:25;;;;;;;6.70;2.63;;;;;;;;;;6214158;28;20074;-77
2022/01/23 08:11:48;;;;;;;4.72;2.25;;;;;;;;;;6215880;28;20069;-77
2022/01/23 08:14:52;;;;;;;5.50;2.45;;;;;;;;;;6216349;28;20077;-77
2022/01/23 08:17:59;;;;;;;6.45;2.40;;;;;;;;;;6214265;28;20127;-77
2022/01/23 08:21:07;;;;;;;4.70;2.72;;;;;;;;;;6215253;28;20123;-77
2022/01/23 08:24:11;;;;;;;5.00;2.65;;;;;;;;;;6214265;28;20048;-77
2022/01/23 08:27:14;;;;;;;7.55;3.08;;;;;;;;;;6214170;28;20057;-77
2022/01/23 08:30:18;;;;;;;5.47;2.80;;;;;;;;;;6213583;28;20061;-78
2022/01/23 08:33:21;;;;;;;7.43;3.22;;;;;;;;;;6214134;28;20046;-78
2022/01/23 08:36:26;;;;;;;7.45;2.78;;;;;;;;;;6215338;28;20234;-77
2022/01/23 08:39:31;;;;;;;8.35;2.80;;;;;;;;;;6213752;28;20080;-77
2022/01/23 08:42:34;;;;;;;5.82;2.40;;;;;;;;;;6214910;28;20400;-76
2022/01/23 08:45:38;;;;;;;6.95;2.60;;;;;;;;;;6214108;28;20046;-78
2022/01/23 08:48:41;;;;;;;7.10;2.85;;;;;;;;;;6215300;28;20413;-78
2022/01/23 08:51:46;;;;;;;9.43;2.80;;;;;;;;;;6214577;28;20099;-76
2022/01/23 08:54:50;;;;;;;7.10;2.90;;;;;;;;;;6214169;28;20074;-77
2022/01/23 08:57:54;;;;;;;7.10;2.97;;;;;;;;;;6213635;28;20054;-77
2022/01/23 09:01:02;;;;;;;8.57;3.53;;;;;;;;;;6214563;28;20042;-76
2022/01/23 09:04:07;;;;;;;10.32;3.60;;;;;;;;;;6214715;28;20385;-78
2022/01/23 09:07:11;;;;;;;8.27;3.25;;;;;;;;;;6214560;28;20118;-77
2022/01/23 09:10:17;;;;;;;6.10;3.25;;;;;;;;;;6213608;28;20085;-77
2022/01/23 09:13:31;;;;;;;7.57;3.13;;;;;;;;;;6212890;28;20458;-77
2022/01/23 09:16:35;;;;;;;6.60;3.22;;;;;;;;;;6212203;28;20074;-76
2022/01/23 09:19:40;;;;;;;6.70;2.78;;;;;;;;;;6212106;28;20042;-77
2022/01/23 09:22:47;;;;;;;7.32;2.70;;;;;;;;;;6210512;28;20137;-77
2022/01/23 09:25:52;;;;;;;8.20;2.85;;;;;;;;;;6210546;28;20125;-77
2022/01/23 09:29:00;;;;;;;9.95;3.03;;;;;;;;;;6210841;28;20066;-77
2022/01/23 09:32:04;;;;;;;6.53;2.92;;;;;;;;;;6217719;28;20049;-78
2022/01/23 09:35:08;;;;;;;8.95;3.65;;;;;;;;;;6226533;28;20057;-77
2022/01/23 09:38:12;;;;;;;7.47;3.22;;;;;;;;;;6216299;28;20068;-76
2022/01/23 09:41:17;;;;;;;10.53;3.47;;;;;;;;;;6213416;28;20038;-76
2022/01/23 09:44:20;;;;;;;9.43;3.53;;;;;;;;;;6213018;28;20128;-77
2022/01/23 09:47:23;;;;;;;10.85;3.90;;;;;;;;;;6212885;28;20074;-78
2022/01/23 09:50:26;;;;;;;9.10;3.40;;;;;;;;;;6196618;28;20133;-77
2022/01/23 09:53:32;;;;;;;7.50;3.00;;;;;;;;;;6213109;28;20479;-76
2022/01/23 09:56:35;;;;;;;9.68;3.75;;;;;;;;;;6213397;28;20057;-77
2022/01/23 09:59:40;;;;;;;6.15;3.10;;;;;;;;;;6212833;28;20428;-77
2022/01/23 10:02:43;;;;;;;11.15;3.15;;;;;;;;;;6213186;28;20046;-77
2022/01/23 10:05:49;;;;;;;10.02;3.05;;;;;;;;;;6212659;28;20451;-76
2022/01/23 10:08:54;;;;;;;5.95;3.25;;;;;;;;;;6218324;28;20049;-77
2022/01/23 10:11:58;;;;;;;9.77;3.53;;;;;;;;;;6218457;28;20070;-76
2022/01/23 10:15:01;;;;;;;8.45;3.45;;;;;;;;;;6218182;28;20050;-78
2022/01/23 10:18:06;;;;;;;9.75;3.70;;;;;;;;;;6216563;28;20118;-75
2022/01/23 10:21:12;;;;;;;11.63;4.60;;;;;;;;;;6217682;28;20058;-77
2022/01/23 10:24:16;;;;;;;8.13;3.05;;;;;;;;;;6218037;28;20327;-76
2022/01/23 10:27:22;;;;;;;8.20;3.63;;;;;;;;;;6216170;28;20049;-75
2022/01/23 10:30:29;;;;;;;7.60;3.47;;;;;;;;;;6216368;28;20799;-76
2022/01/23 10:33:33;;;;;;;12.38;4.22;;;;;;;;;;6217784;28;20213;-76
2022/01/23 10:36:48;;;;;;;9.43;4.18;;;;;;;;;;6216479;28;20516;-76
2022/01/23 10:39:54;;;;;;;11.65;3.58;;;;;;;;;;6217704;28;20075;-77
2022/01/23 10:49:49;;;;;;;8.57;3.30;;;;;;;;;;6217688;28;20516;-78
2022/01/23 10:52:53;;;;;;;7.60;2.95;;;;;;;;;;6215700;28;20118;-76
2022/01/23 10:56:06;;;;;;;9.93;3.25;;;;;;;;;;6216097;28;20073;-77
2022/01/23 10:59:10;;;;;;;7.32;3.70;;;;;;;;;;6216344;28;20570;-74
2022/01/23 11:02:15;;;;;;;10.75;3.38;;;;;;;;;;6217207;28;20065;-78
2022/01/23 11:05:19;;;;;;;7.35;3.33;;;;;;;;;;6217178;28;20046;-74
2022/01/23 11:08:26;;;;;;;9.65;3.58;;;;;;;;;;6215851;28;20552;-74
2022/01/23 11:11:43;;;;;;;6.85;3.78;;;;;;;;;;6215920;28;20450;-74
2022/01/23 11:18:19;;;;;;;8.27;3.42;;;;;;;;;;6216405;28;20037;-75
2022/01/23 11:21:22;;;;;;;7.13;3.97;;;;;;;;;;6216810;28;20077;-75
2022/01/23 11:24:48;;;;;;;9.73;3.70;;;;;;;;;;6217115;28;20053;-73
2022/01/23 11:28:01;;;;;;;10.77;3.80;;;;;;;;;;6216409;28;20065;-73
2022/01/23 11:31:05;;;;;;;9.85;4.13;;;;;;;;;;6216493;28;20192;-74
2022/01/23 11:34:08;;;;;;;7.82;4.03;;;;;;;;;;6215299;28;20074;-74
2022/01/23 11:37:13;;;;;;;9.23;3.90;;;;;;;;;;6215624;28;20046;-74
2022/01/23 11:53:55;;;;;;;8.75;4.05;;;;;;;;;;6214956;28;20053;-75
2022/01/23 11:57:02;;;;;;;10.93;4.40;;;;;;;;;;6214877;28;20049;-75
2022/01/23 12:00:37;;;;;;;11.40;4.20;;;;;;;;;;6215672;28;20132;-76
2022/01/23 12:04:00;;;;;;;9.95;4.57;;;;;;;;;;6216241;28;20042;-74
2022/01/23 12:07:22;;;;;;;11.85;4.70;;;;;;;;;;6214301;28;20046;-74
2022/01/23 12:10:29;;;;;;;9.65;4.30;;;;;;;;;;6214090;28;20045;-75
2022/01/23 12:13:56;;;;;;;9.07;4.05;;;;;;;;;;6214377;28;20103;-75
2022/01/23 12:17:02;;;;;;;10.35;4.80;;;;;;;;;;6223006;28;20046;-75
2022/01/23 12:20:06;;;;;;;11.75;4.15;;;;;;;;;;6225522;28;20457;-75
2022/01/23 12:23:12;;;;;;;8.48;4.40;;;;;;;;;;6217067;28;20042;-74
2022/01/23 12:26:20;;;;;;;10.25;4.53;;;;;;;;;;6214983;28;20068;-74
2022/01/23 12:29:24;;;;;;;7.53;4.22;;;;;;;;;;6214523;28;20065;-74
2022/01/23 12:32:41;;;;;;;11.65;5.25;;;;;;;;;;6213929;28;20080;-75
2022/01/23 12:35:48;;;;;;;12.70;4.35;;;;;;;;;;6214433;28;20046;-75
2022/01/23 12:38:54;;;;;;;13.57;4.90;;;;;;;;;;6214363;28;20460;-74
2022/01/23 12:42:02;;;;;;;8.65;3.97;;;;;;;;;;6215325;28;20095;-74
2022/01/23 12:45:36;;;;;;;11.18;4.30;;;;;;;;;;6213930;28;20060;-75
2022/01/23 12:48:43;;;;;;;14.80;5.97;;;;;;;;;;6236141;28;20055;-74
2022/01/23 12:51:50;;;;;;;11.73;5.10;;;;;;;;;;6245752;28;20116;-75
2022/01/23 12:54:58;;;;;;;9.23;4.88;;;;;;;;;;6238992;28;20038;-74
2022/01/23 12:58:11;;;;;;;11.05;4.25;;;;;;;;;;6221982;28;20098;-74
2022/01/23 13:01:17;;;;;;;11.40;4.30;;;;;;;;;;6237994;28;20053;-74
2022/01/23 13:04:22;;;;;;;11.15;4.80;;;;;;;;;;6239728;28;20076;-73
2022/01/23 13:07:37;;;;;;;8.88;3.97;;;;;;;;;;6238036;28;20046;-74
2022/01/23 13:11:10;;;;;;;11.05;4.35;;;;;;;;;;6237874;28;20068;-74
2022/01/23 13:14:13;;;;;;;10.35;4.25;;;;;;;;;;6237902;28;20054;-75
2022/01/23 13:17:40;;;;;;;8.93;4.20;;;;;;;;;;6238282;28;20118;-76
2022/01/23 13:30:53;;;;;;;11.38;4.85;;;;;;;;;;6238842;28;20579;-74
2022/01/23 13:33:58;;;;;;;11.77;3.92;;;;;;;;;;6239049;28;20358;-74
2022/01/23 13:37:04;;;;;;;10.40;4.03;;;;;;;;;;6237328;28;20049;-76
2022/01/23 13:40:10;;;;;;;10.65;4.53;;;;;;;;;;6237626;28;20136;-75
2022/01/23 13:53:28;;;;;;;9.13;4.30;;;;;;;;;;6217955;28;20057;-73
2022/01/23 14:00:02;;;;;;;7.78;3.92;;;;;;;;;;6237140;28;20429;-73
2022/01/23 14:03:09;;;;;;;10.43;4.00;;;;;;;;;;6238039;28;20076;-74
2022/01/23 14:06:14;;;;;;;7.35;3.50;;;;;;;;;;6237164;28;20134;-76
2022/01/23 14:09:20;;;;;;;7.30;3.45;;;;;;;;;;6237089;28;20052;-74
2022/01/23 14:12:23;;;;;;;11.02;4.30;;;;;;;;;;6236819;28;20128;-74
2022/01/23 14:15:48;;;;;;;10.00;3.95;;;;;;;;;;6238676;28;20125;-73
2022/01/23 14:18:53;;;;;;;9.63;4.57;;;;;;;;;;6238203;28;20094;-74
2022/01/23 14:21:59;;;;;;;8.50;3.90;;;;;;;;;;6238353;28;20560;-74
2022/01/23 14:25:12;;;;;;;9.18;3.97;;;;;;;;;;6237385;28;20045;-74
2022/01/23 14:28:18;;;;;;;8.88;4.70;;;;;;;;;;6236753;28;20060;-74
2022/01/23 14:31:35;;;;;;;9.68;4.10;;;;;;;;;;6237895;28;20064;-74
2022/01/23 14:34:38;;;;;;;7.82;3.70;;;;;;;;;;6236747;28;20057;-74
2022/01/23 14:37:45;;;;;;;11.63;4.45;;;;;;;;;;6236791;28;20045;-74
2022/01/23 14:40:54;;;;;;;11.02;4.90;;;;;;;;;;6238047;28;20130;-74
2022/01/23 14:43:58;;;;;;;9.10;4.05;;;;;;;;;;6237910;28;20045;-75
2022/01/23 14:47:01;;;;;;;10.82;4.63;;;;;;;;;;6237617;28;20046;-72
2022/01/23 14:50:06;;;;;;;11.32;4.35;;;;;;;;;;6236351;28;20045;-73
2022/01/23 14:53:13;;;;;;;13.55;4.50;;;;;;;;;;6237322;28;20079;-73
2022/01/23 14:56:20;;;;;;;10.60;4.10;;;;;;;;;;6242013;28;20049;-73
2022/01/23 14:59:24;;;;;;;40.97;16.73;;;;;;;;;;6241476;28;20078;-74
2022/01/23 15:02:27;;;;;;;14.75;4.88;;;;;;;;;;6240347;28;20041;-73
2022/01/23 15:05:32;;;;;;;12.90;4.43;;;;;;;;;;6242004;28;20041;-72
2022/01/23 15:08:37;;;;;;;10.25;4.57;;;;;;;;;;6239978;28;20584;-74
2022/01/23 15:11:42;;;;;;;13.23;4.57;;;;;;;;;;6241653;28;20553;-72
2022/01/23 15:14:48;;;;;;;12.93;4.78;;;;;;;;;;6242042;28;20098;-72
2022/01/23 15:17:53;;;;;;;12.90;4.50;;;;;;;;;;6240069;28;20084;-73
2022/01/23 15:20:58;;;;;;;14.97;4.87;;;;;;;;;;6241359;28;20037;-72
2022/01/23 15:24:02;;;;;;;12.80;4.55;;;;;;;;;;6239954;28;20073;-72
2022/01/23 15:27:07;;;;;;;;;;;;;;;;;;6241894;28;20157;-73
2022/01/23 15:30:16;;;;;;;13.13;5.38;;;;;;;;;;6239489;28;20264;-73
2022/01/23 15:33:19;;;;;;;11.02;4.38;;;;;;;;;;6241158;28;20045;-72
2022/01/23 15:36:22;;;;;;;11.68;3.90;;;;;;;;;;6241397;28;20065;-72
2022/01/23 15:39:26;;;;;;;9.57;4.30;;;;;;;;;;6239548;28;20093;-73
2022/01/23 15:42:29;;;;;;;7.50;4.28;;;;;;;;;;6240631;28;20065;-73
2022/01/23 15:45:34;;;;;;;8.30;3.80;;;;;;;;;;6239760;28;20049;-74
2022/01/23 15:48:37;;;;;;;8.90;4.47;;;;;;;;;;6239728;28;20076;-73
2022/01/23 15:51:41;;;;;;;11.65;4.25;;;;;;;;;;6239343;28;20623;-72
2022/01/23 15:54:45;;;;;;;10.20;4.40;;;;;;;;;;6240813;28;20080;-72
2022/01/23 15:57:49;;;;;;;9.75;3.78;;;;;;;;;;6239343;28;20052;-73
2022/01/23 16:00:54;;;;;;;7.82;3.47;;;;;;;;;;6238979;28;20083;-73
2022/01/23 16:03:57;;;;;;;8.93;3.97;;;;;;;;;;6238947;28;20041;-73
2022/01/23 16:07:00;;;;;;;8.13;3.90;;;;;;;;;;6240390;28;20045;-72
2022/01/23 16:10:06;;;;;;;7.70;3.67;;;;;;;;;;6239203;28;20061;-71
2022/01/23 16:13:10;;;;;;;8.48;4.28;;;;;;;;;;6243981;28;20125;-74
2022/01/23 16:16:15;;;;;;;9.10;4.47;;;;;;;;;;6244959;28;20038;-75
2022/01/23 16:19:18;;;;;;;12.07;4.27;;;;;;;;;;6240520;28;20105;-74
2022/01/23 16:22:21;;;;;;;10.77;4.45;;;;;;;;;;6238641;28;20495;-75
2022/01/23 16:25:26;;;;;;;11.57;4.05;;;;;;;;;;6238797;28;20052;-75
2022/01/23 16:28:29;;;;;;;12.25;5.38;;;;;;;;;;6238747;28;20065;-75
2022/01/23 16:31:34;;;;;;;14.65;5.60;;;;;;;;;;6239400;28;20423;-76
2022/01/23 16:34:38;;;;;;;12.73;5.22;;;;;;;;;;6238398;28;20049;-74
2022/01/23 16:37:43;;;;;;;12.32;5.47;;;;;;;;;;6239960;28;20060;-75
2022/01/23 16:40:47;;;;;;;11.00;5.38;;;;;;;;;;6238770;28;20049;-76
2022/01/23 16:43:51;;;;;;;11.70;4.97;;;;;;;;;;6238137;28;20420;-76
2022/01/23 16:46:57;;;;;;;13.23;5.50;;;;;;;;;;6238259;28;20396;-77
2022/01/23 16:50:18;;;;;;;11.05;4.60;;;;;;;;;;6239660;28;20069;-76
2022/01/23 16:53:21;;;;;;;14.20;4.88;;;;;;;;;;6238229;28;20052;-75
2022/01/23 16:56:24;;;;;;;11.18;5.35;;;;;;;;;;6237919;28;20119;-74
2022/01/23 16:59:27;;;;;;;14.65;5.10;;;;;;;;;;6238110;28;20120;-74
2022/01/23 17:02:32;;;;;;;9.90;4.88;;;;;;;;;;6238358;28;20098;-75
2022/01/23 17:05:35;;;;;;;14.43;6.03;;;;;;;;;;6237837;28;20491;-75
2022/01/23 17:08:41;;;;;;;11.45;6.35;;;;;;;;;;6238014;28;20049;-75
2022/01/23 17:11:44;;;;;;;13.73;5.72;;;;;;;;;;6238026;28;20044;-75
2022/01/23 17:14:58;;;;;;;18.52;6.93;;;;;;;;;;6238237;28;20061;-76
2022/01/23 17:18:03;;;;;;;15.50;5.80;;;;;;;;;;6237119;28;20510;-74
2022/01/23 17:21:08;;;;;;;11.68;5.65;;;;;;;;;;6237785;28;20065;-74
2022/01/23 17:24:11;;;;;;;14.18;6.25;;;;;;;;;;6237680;28;20049;-75
2022/01/23 17:27:15;;;;;;;16.88;5.95;;;;;;;;;;6238766;28;20049;-72
2022/01/23 17:30:18;;;;;;;14.48;5.57;;;;;;;;;;6238801;28;20050;-75
2022/01/23 17:33:23;;;;;;;21.50;6.63;;;;;;;;;;6238964;28;20064;-76
2022/01/23 17:36:26;;;;;;;24.35;7.43;;;;;;;;;;6238773;28;20174;-76
2022/01/23 17:39:29;;;;;;;13.32;6.13;;;;;;;;;;6237386;28;20073;-77
2022/01/23 17:42:32;;;;;;;15.45;6.25;;;;;;;;;;6221112;28;20083;-77
2022/01/23 17:45:40;;;;;;;16.85;6.85;;;;;;;;;;6237570;28;20077;-76
2022/01/23 17:49:02;;;;;;;13.88;6.28;;;;;;;;;;6237030;28;20049;-76
2022/01/23 17:52:05;;;;;;;15.30;6.50;;;;;;;;;;6237216;28;20108;-75
2022/01/23 17:55:09;;;;;;;15.30;6.60;;;;;;;;;;6237164;28;20503;-76
2022/01/23 17:58:12;;;;;;;16.30;6.70;;;;;;;;;;6237212;28;20073;-75
2022/01/23 18:01:15;;;;;;;16.08;6.25;;;;;;;;;;6238293;28;20048;-75
2022/01/23 18:04:20;;;;;;;15.35;6.60;;;;;;;;;;6237814;28;20062;-75
2022/01/23 18:07:24;;;;;;;18.35;7.00;;;;;;;;;;6238446;28;20049;-75
2022/01/23 18:10:27;;;;;;;15.35;6.70;;;;;;;;;;6238396;28;20483;-75
2022/01/23 18:13:30;;;;;;;15.95;7.00;;;;;;;;;;6236660;28;20056;-74
2022/01/23 18:16:36;;;;;;;;;;;;;;;;;;6238742;28;20042;-74
2022/01/23 18:19:41;;;;;;;20.90;6.47;;;;;;;;;;6238207;28;20298;-74
2022/01/23 18:22:44;;;;;;;16.55;5.40;;;;;;;;;;6236307;28;20479;-75
2022/01/23 18:25:47;;;;;;;19.02;7.50;;;;;;;;;;6236467;28;20075;-76
2022/01/23 18:28:52;;;;;;;13.55;5.10;;;;;;;;;;6240107;28;20145;-74
2022/01/23 18:31:56;;;;;;;14.43;6.15;;;;;;;;;;6241781;28;20050;-77
2022/01/23 18:35:02;;;;;;;16.63;5.95;;;;;;;;;;6242049;28;20049;-74
2022/01/23 18:38:05;;;;;;;14.00;5.88;;;;;;;;;;6240883;28;20099;-76
2022/01/23 18:41:09;;;;;;;11.45;5.40;;;;;;;;;;6242401;28;20052;-75
2022/01/23 18:44:12;;;;;;;12.25;5.10;;;;;;;;;;6224256;28;20055;-75
2022/01/23 18:47:16;;;;;;;10.02;5.30;;;;;;;;;;6240688;28;20373;-75
2022/01/23 18:50:22;;;;;;;12.50;5.30;;;;;;;;;;6240889;28;20056;-77
2022/01/23 18:53:33;;;;;;;14.13;6.28;;;;;;;;;;6241842;28;20050;-76
2022/01/23 18:56:46;;;;;;;12.30;4.95;;;;;;;;;;6241576;28;20041;-77
2022/01/23 18:59:52;;;;;;;11.82;5.15;;;;;;;;;;6241891;28;20517;-77
2022/01/23 19:03:00;;;;;;;11.25;5.25;;;;;;;;;;6240349;28;20049;-75
2022/01/23 19:06:13;;;;;;;13.52;5.78;;;;;;;;;;6241639;28;20042;-76
2022/01/23 19:09:22;;;;;;;12.02;5.75;;;;;;;;;;6240122;28;20053;-76
2022/01/23 19:12:28;;;;;;;19.15;8.00;;;;;;;;;;6240440;28;20073;-77
2022/01/23 19:15:31;;;;;;;16.80;6.88;;;;;;;;;;6223682;28;20053;-77
2022/01/23 19:18:35;;;;;;;13.15;6.30;;;;;;;;;;6241278;28;20099;-74
2022/01/23 19:21:40;;;;;;;20.48;6.70;;;;;;;;;;6241486;28;20045;-75
2022/01/23 19:24:46;;;;;;;11.90;4.47;;;;;;;;;;6240128;28;20076;-76
2022/01/23 19:27:55;;;;;;;12.95;5.38;;;;;;;;;;6245441;28;20088;-76
2022/01/23 19:31:01;;;;;;;11.65;5.35;;;;;;;;;;6245247;28;20065;-76
2022/01/23 19:34:07;;;;;;;12.82;5.47;;;;;;;;;;6240151;28;20059;-75
2022/01/23 19:37:12;;;;;;;12.80;5.47;;;;;;;;;;6239621;28;20088;-76
2022/01/23 19:40:23;;;;;;;10.48;5.25;;;;;;;;;;6239208;28;20044;-77
2022/01/23 19:47:05;;;;;;;11.55;5.45;;;;;;;;;;6240863;28;20037;-73
2022/01/23 19:50:08;;;;;;;11.77;5.35;;;;;;;;;;6239532;28;20077;-76
2022/01/23 19:53:14;;;;;;;15.45;5.75;;;;;;;;;;6239813;28;20053;-75
2022/01/23 19:56:20;;;;;;;16.95;7.03;;;;;;;;;;6239398;28;20510;-75
2022/01/23 19:59:23;;;;;;;12.15;5.88;;;;;;;;;;6240590;28;20126;-77
2022/01/23 20:02:26;;;;;;;14.95;6.85;;;;;;;;;;6239154;28;20072;-74
2022/01/23 20:05:29;;;;;;;15.25;6.82;;;;;;;;;;6238998;28;20042;-75
2022/01/23 20:08:34;;;;;;;22.30;8.52;;;;;;;;;;6240944;28;20052;-75
2022/01/23 20:14:59;;;;;;;12.50;5.70;;;;;;;;;;6238940;28;20045;-76
2022/01/23 20:18:03;;;;;;;10.18;5.10;;;;;;;;;;6238857;28;20042;-76
2022/01/23 20:21:06;;;;;;;15.35;6.50;;;;;;;;;;6240216;28;20037;-75
2022/01/23 20:24:33;;;;;;;13.15;5.63;;;;;;;;;;6239063;28;20046;-77
2022/01/23 20:27:37;;;;;;;14.73;6.75;;;;;;;;;;6238537;28;20053;-75
2022/01/23 20:30:40;;;;;;;17.77;7.78;;;;;;;;;;6240074;28;20060;-75
2022/01/23 20:33:44;;;;;;;13.35;6.70;;;;;;;;;;6239942;28;20073;-75
2022/01/23 20:36:51;;;;;;;15.15;6.45;;;;;;;;;;6238600;28;20525;-75
2022/01/23 20:39:55;;;;;;;16.65;6.78;;;;;;;;;;6238368;28;20103;-75
2022/01/23 20:42:58;;;;;;;13.73;6.03;;;;;;;;;;6238806;28;20124;-75
2022/01/23 20:46:02;;;;;;;15.23;6.78;;;;;;;;;;6222078;28;20126;-75
2022/01/23 20:49:05;;;;;;;14.45;5.07;;;;;;;;;;6239398;28;20505;-76
2022/01/23 20:52:28;;;;;;;14.93;5.65;;;;;;;;;;6238777;28;20457;-75
2022/01/23 20:55:33;;;;;;;14.25;5.80;;;;;;;;;;6238649;28;20072;-76
2022/01/23 20:58:36;;;;;;;13.90;5.63;;;;;;;;;;6239905;28;20041;-75
2022/01/23 21:01:42;;;;;;;14.05;5.22;;;;;;;;;;6238251;28;20045;-75
2022/01/23 21:04:46;;;;;;;14.57;5.55;;;;;;;;;;6239612;28;20057;-76
2022/01/23 21:07:50;;;;;;;12.15;5.93;;;;;;;;;;6239318;28;20057;-75
2022/01/23 21:10:55;;;;;;;13.85;6.55;;;;;;;;;;6239169;28;20073;-75
2022/01/23 21:14:07;;;;;;;15.15;6.53;;;;;;;;;;6239538;28;20269;-74
2022/01/23 21:17:30;;;;;;;14.63;5.75;;;;;;;;;;6239151;28;20045;-75
2022/01/23 21:20:38;;;;;;;15.77;6.38;;;;;;;;;;6221429;28;20053;-75
2022/01/23 21:28:40;;;;;;;17.27;7.32;;;;;;;;;;6238993;28;20079;-74
2022/01/23 21:40:44;;;;;;;15.85;6.85;;;;;;;;;;6237121;28;20045;-77
2022/01/23 21:43:55;;;;;;;14.50;6.43;;;;;;;;;;6237785;28;20065;-75
2022/01/23 21:46:59;;;;;;;24.83;8.05;;;;;;;;;;6237106;28;20060;-76